createdAt,value
2022-08-11T00:02:34.086Z,2.30
2022-08-11T00:07:28.146Z,2.05
2022-08-11T00:12:21.799Z,2.20
2022-08-11T00:17:16.982Z,2.00
2022-08-11T00:22:11.304Z,2.17
2022-08-11T00:27:04.497Z,2.30
2022-08-11T00:32:00.529Z,1.92
2022-08-11T00:36:54.953Z,2.05
2022-08-11T00:42:11.669Z,2.20
2022-08-11T00:47:29.525Z,2.45
2022-08-11T00:53:00.056Z,1.80
2022-08-11T00:58:07.701Z,2.17
2022-08-11T01:03:37.140Z,2.38
2022-08-11T01:08:34.158Z,2.38
2022-08-11T01:13:47.149Z,1.92
2022-08-11T01:18:58.769Z,2.35
2022-08-11T01:24:29.683Z,2.10
2022-08-11T01:29:22.008Z,1.98
2022-08-11T01:34:52.825Z,2.40
2022-08-11T01:40:16.595Z,2.15
2022-08-11T01:45:33.433Z,2.42
2022-08-11T01:50:58.676Z,2.35
2022-08-11T01:56:22.809Z,2.10
2022-08-11T02:01:37.850Z,2.55
2022-08-11T02:07:09.938Z,2.30
2022-08-11T02:12:16.588Z,2.53
2022-08-11T02:17:19.360Z,2.20
2022-08-11T02:22:36.384Z,2.30
2022-08-11T02:28:02.653Z,2.10
2022-08-11T02:33:22.622Z,2.50
2022-08-11T02:38:48.928Z,2.45
2022-08-11T02:44:15.703Z,2.47
2022-08-11T02:50:06.788Z,2.22
2022-08-11T02:55:47.985Z,2.42
2022-08-11T03:00:27.804Z,2.05
2022-08-11T03:05:44.476Z,2.20
2022-08-11T03:11:42.324Z,2.45
2022-08-11T03:16:54.975Z,2.55
2022-08-11T03:22:14.558Z,3.78
2022-08-11T03:27:20.285Z,5.28
2022-08-11T03:33:12.888Z,4.70
2022-08-11T03:38:13.425Z,5.18
2022-08-11T03:43:09.079Z,4.85
2022-08-11T03:48:23.736Z,4.38
2022-08-11T03:53:35.603Z,4.72
2022-08-11T03:58:41.613Z,4.10
2022-08-11T04:03:43.890Z,4.00
2022-08-11T04:09:07.475Z,3.75
2022-08-11T04:14:39.288Z,4.10
2022-08-11T04:19:50.217Z,3.53
2022-08-11T04:25:03.655Z,3.50
2022-08-11T04:30:05.446Z,3.92
2022-08-11T04:35:32.404Z,4.60
2022-08-11T04:40:44.729Z,3.40
2022-08-11T04:46:04.096Z,4.10
2022-08-11T04:51:27.695Z,3.45
2022-08-11T04:56:43.701Z,3.30
2022-08-11T05:01:42.181Z,3.58
2022-08-11T05:06:57.141Z,4.15
2022-08-11T05:12:20.154Z,4.53
2022-08-11T05:17:40.912Z,3.47
2022-08-11T05:22:55.197Z,3.30
2022-08-11T05:28:33.487Z,3.08
2022-08-11T05:33:52.621Z,3.28
2022-08-11T05:39:15.874Z,3.20
2022-08-11T05:44:34.528Z,3.33
2022-08-11T05:49:48.908Z,2.97
2022-08-11T05:55:06.369Z,3.17
2022-08-11T06:00:43.318Z,2.92
2022-08-11T06:05:43.951Z,2.97
2022-08-11T06:10:41.974Z,2.92
2022-08-11T06:15:45.520Z,3.10
2022-08-11T06:21:17.365Z,3.10
2022-08-11T06:26:11.803Z,2.85
2022-08-11T06:31:17.907Z,2.75
2022-08-11T06:36:49.819Z,2.60
2022-08-11T06:41:49.941Z,3.08
2022-08-11T06:46:47.096Z,3.05
2022-08-11T06:51:41.677Z,2.72
2022-08-11T06:57:34.196Z,2.45
2022-08-11T07:02:15.602Z,2.58
2022-08-11T07:07:44.840Z,3.05
2022-08-11T07:13:01.085Z,2.22
2022-08-11T07:18:14.964Z,2.55
2022-08-11T07:23:28.587Z,2.83
2022-08-11T07:28:47.936Z,2.60
2022-08-11T07:34:08.309Z,2.42
2022-08-11T07:39:03.718Z,2.75
2022-08-11T07:44:09.311Z,3.15
2022-08-11T07:49:23.216Z,2.50
2022-08-11T07:54:16.838Z,2.22
2022-08-11T07:59:57.504Z,2.20
2022-08-11T08:05:01.150Z,2.10
2022-08-11T08:10:14.177Z,2.58
2022-08-11T08:15:33.320Z,2.45
2022-08-11T08:20:31.511Z,1.80
2022-08-11T08:25:26.977Z,1.77
2022-08-11T08:30:38.904Z,2.00
2022-08-11T08:35:33.361Z,2.15
2022-08-11T08:40:27.640Z,1.95
2022-08-11T08:45:22.394Z,1.75
2022-08-11T08:50:19.892Z,2.22
2022-08-11T08:55:18.780Z,2.15
2022-08-11T09:00:19.262Z,2.17
2022-08-11T09:05:21.874Z,1.98
2022-08-11T09:10:17.846Z,1.80
2022-08-11T09:15:12.078Z,1.77
2022-08-11T09:20:23.260Z,2.08
2022-08-11T09:25:35.252Z,2.08
2022-08-11T09:30:28.981Z,2.30
2022-08-11T09:35:23.220Z,1.90
2022-08-11T09:40:34.268Z,2.00
2022-08-11T09:45:28.949Z,2.30
2022-08-11T09:50:35.638Z,2.03
2022-08-11T09:55:28.977Z,1.85
2022-08-11T10:00:49.754Z,2.10
2022-08-11T10:06:13.632Z,2.28
2022-08-11T10:11:18.748Z,1.75
2022-08-11T10:16:15.447Z,2.20
2022-08-11T10:21:29.430Z,1.98
2022-08-11T10:26:43.189Z,1.77
2022-08-11T10:31:57.475Z,2.15
2022-08-11T10:36:52.758Z,1.92
2022-08-11T10:42:41.684Z,1.88
2022-08-11T10:47:48.961Z,1.75
2022-08-11T10:53:02.836Z,2.28
2022-08-11T10:58:15.221Z,2.22
2022-08-11T11:03:22.951Z,2.08
2022-08-11T11:08:38.183Z,1.80
2022-08-11T11:13:53.316Z,2.15
2022-08-11T11:19:00.590Z,2.47
2022-08-11T11:24:34.267Z,2.30
2022-08-11T11:30:04.628Z,1.80
2022-08-11T11:35:03.808Z,2.00
2022-08-11T11:39:58.261Z,1.83
2022-08-11T11:44:55.655Z,1.92
2022-08-11T11:49:50.055Z,1.60
2022-08-11T12:00:34.049Z,1.70
2022-08-11T12:05:29.374Z,1.67
2022-08-11T12:10:22.903Z,1.80
2022-08-11T12:16:31.363Z,1.75
2022-08-11T12:21:28.291Z,1.60
2022-08-11T12:26:39.595Z,1.83
2022-08-11T12:32:12.243Z,1.90
2022-08-11T12:37:30.594Z,1.98
2022-08-11T12:43:24.177Z,1.80
2022-08-11T12:48:58.748Z,1.70
2022-08-11T12:53:58.292Z,1.95
2022-08-11T12:58:52.920Z,1.77
2022-08-11T13:04:04.860Z,1.77
2022-08-11T13:09:18.014Z,1.92
2022-08-11T13:14:14.957Z,1.50
2022-08-11T13:19:10.491Z,1.70
2022-08-11T13:24:03.852Z,1.80
2022-08-11T13:28:57.775Z,1.90
2022-08-11T13:33:55.399Z,1.55
2022-08-11T13:38:54.295Z,1.70
2022-08-11T13:43:47.612Z,1.90
2022-08-11T13:48:42.359Z,1.60
2022-08-11T13:53:35.908Z,1.80
2022-08-11T13:58:39.603Z,1.40
2022-08-11T14:04:29.975Z,1.80
2022-08-11T14:08:49.619Z,1.90
2022-08-11T14:13:48.485Z,1.80
2022-08-11T14:18:49.088Z,1.47
2022-08-11T14:28:42.016Z,1.73
2022-08-11T14:34:00.947Z,1.55
2022-08-11T14:38:53.791Z,1.50
2022-08-11T14:44:13.703Z,1.70
2022-08-11T14:49:08.075Z,1.77
2022-08-11T14:54:20.219Z,1.70
2022-08-11T14:59:15.302Z,1.67
2022-08-11T15:04:34.800Z,1.83
2022-08-11T15:09:22.956Z,1.70
2022-08-11T15:14:36.216Z,1.60
2022-08-11T15:19:40.732Z,1.73
2022-08-11T15:24:36.837Z,1.60
2022-08-11T15:29:49.718Z,1.40
2022-08-11T15:35:03.862Z,1.50
2022-08-11T15:40:33.250Z,1.60
2022-08-11T15:45:45.655Z,1.95
2022-08-11T15:50:45.000Z,1.77
2022-08-11T15:55:39.799Z,1.60
2022-08-11T16:00:58.857Z,1.38
2022-08-11T16:05:58.298Z,1.65
2022-08-11T16:10:56.596Z,1.45
2022-08-11T16:16:13.530Z,1.40
2022-08-11T16:21:26.164Z,1.25
2022-08-11T16:27:10.130Z,1.58
2022-08-11T16:31:41.959Z,1.63
2022-08-11T16:36:53.905Z,1.60
2022-08-11T16:46:59.927Z,1.40
2022-08-11T16:51:53.400Z,1.40
2022-08-11T16:56:51.253Z,1.52
2022-08-11T17:02:05.751Z,2.00
2022-08-11T17:07:23.671Z,1.90
2022-08-11T17:12:50.142Z,2.30
2022-08-11T17:17:42.764Z,1.75
2022-08-11T17:22:54.254Z,1.60
2022-08-11T17:33:02.813Z,1.65
2022-08-11T17:38:02.795Z,1.60
2022-08-11T17:43:16.599Z,1.50
2022-08-11T17:48:28.508Z,1.90
2022-08-11T17:53:40.771Z,1.40
2022-08-11T17:59:13.660Z,1.52
2022-08-11T18:04:07.685Z,1.50
2022-08-11T18:09:20.807Z,1.67
2022-08-11T18:14:33.270Z,1.20
2022-08-11T18:19:45.185Z,1.95
2022-08-11T18:30:13.252Z,1.63
2022-08-11T18:35:27.416Z,1.60
2022-08-11T18:40:43.579Z,1.55
2022-08-11T18:46:06.124Z,1.60
2022-08-11T18:51:31.152Z,1.55
2022-08-11T18:56:50.566Z,1.42
2022-08-11T19:02:03.589Z,1.77
2022-08-11T19:07:20.560Z,1.55
2022-08-11T19:12:33.367Z,2.10
2022-08-11T19:17:46.163Z,1.80
2022-08-11T19:22:57.368Z,1.45
2022-08-11T19:28:10.101Z,1.60
2022-08-11T19:33:22.868Z,1.60
2022-08-11T19:38:54.231Z,1.80
2022-08-11T19:44:06.562Z,1.42
2022-08-11T19:49:18.325Z,1.60
2022-08-11T19:54:30.850Z,2.90
2022-08-11T19:59:42.485Z,1.65
2022-08-11T20:04:53.723Z,1.90
2022-08-11T20:10:06.746Z,1.55
2022-08-11T20:15:19.477Z,1.70
2022-08-11T20:20:32.918Z,1.70
2022-08-11T20:25:46.424Z,1.70
2022-08-11T20:31:00.281Z,1.80
2022-08-11T20:36:11.815Z,1.55
2022-08-11T20:41:24.344Z,1.90
2022-08-11T20:46:35.927Z,1.67
2022-08-11T20:51:47.395Z,1.63
2022-08-11T20:57:00.720Z,1.85
2022-08-11T21:02:14.018Z,1.75
2022-08-11T21:07:28.406Z,2.08
2022-08-11T21:12:40.576Z,2.35
2022-08-11T21:18:00.261Z,2.20
2022-08-11T21:23:23.956Z,2.97
2022-08-11T21:28:38.288Z,2.65
2022-08-11T21:33:50.131Z,2.42
2022-08-11T21:39:01.631Z,2.20
2022-08-11T21:44:13.073Z,2.28
2022-08-11T21:49:26.707Z,2.45
2022-08-11T21:54:39.157Z,2.33
2022-08-11T22:00:11.332Z,2.17
2022-08-11T22:05:24.019Z,2.15
2022-08-11T22:16:00.405Z,1.77
2022-08-11T22:21:14.000Z,2.13
2022-08-11T22:26:47.467Z,1.65
2022-08-11T22:32:00.502Z,1.80
2022-08-11T22:37:26.887Z,1.92
2022-08-11T22:42:39.500Z,2.50
2022-08-11T22:47:52.022Z,1.80
2022-08-11T22:53:04.336Z,2.10
2022-08-11T22:58:16.376Z,1.80
2022-08-11T23:03:37.781Z,1.60
2022-08-11T23:08:53.732Z,1.73
2022-08-11T23:14:11.516Z,1.60
2022-08-11T23:20:01.568Z,1.80
2022-08-11T23:25:08.185Z,1.88
2022-08-11T23:30:31.589Z,2.05
2022-08-11T23:35:54.011Z,2.63
2022-08-11T23:41:14.220Z,3.28
2022-08-11T23:46:33.012Z,3.60
2022-08-11T23:51:52.784Z,3.25
2022-08-11T23:57:14.493Z,2.80
